Time;durP1;ratioP1;P1;durP2;ratioP2;P2;SDS_P1;SDS_P2;PMS_P1;PMS_P2;Temp;Humidity;BMP_temperature;BMP_pressure;BME280_temperature;BME280_humidity;BME280_pressure;Samples;Min_cycle;Max_cycle;Signal;HPM_P1;HPM_P2
2021/09/24 00:00:28;;;;;;;8.18;2.20;;;14.80;99.90;;;;;;5013002;28;20803;-79
2021/09/24 00:02:55;;;;;;;7.90;2.55;;;14.70;99.90;;;;;;5013805;28;20167;-80
2021/09/24 00:05:21;;;;;;;9.05;1.58;;;14.60;99.90;;;;;;5011896;28;20206;-78
2021/09/24 00:07:48;;;;;;;6.55;1.30;;;14.60;99.90;;;;;;5013186;28;20179;-78
2021/09/24 00:10:16;;;;;;;14.73;2.42;;;14.70;99.90;;;;;;5012870;28;20686;-78
2021/09/24 00:12:42;;;;;;;7.77;1.73;;;14.70;99.90;;;;;;5013234;28;20643;-79
2021/09/24 00:15:11;;;;;;;6.47;1.60;;;14.70;99.90;;;;;;5012565;28;20512;-79
2021/09/24 00:17:36;;;;;;;6.97;1.92;;;14.60;99.90;;;;;;5012555;28;20214;-78
2021/09/24 00:20:06;;;;;;;5.53;1.33;;;14.60;99.90;;;;;;5011921;28;20175;-78
2021/09/24 00:22:35;;;;;;;3.30;1.42;;;14.60;99.90;;;;;;5014612;28;20170;-77
2021/09/24 00:25:00;;;;;;;15.13;2.22;;;14.50;99.90;;;;;;5014617;28;20249;-78
2021/09/24 00:27:26;;;;;;;8.60;2.00;;;14.40;99.90;;;;;;5016293;28;20183;-78
2021/09/24 00:29:51;;;;;;;5.90;1.33;;;14.50;99.90;;;;;;5015391;28;20206;-78
2021/09/24 00:32:17;;;;;;;9.70;1.90;;;14.60;99.90;;;;;;5016535;28;20627;-78
2021/09/24 00:34:43;;;;;;;12.77;1.90;;;14.60;99.90;;;;;;5014754;28;20186;-79
2021/09/24 00:37:08;;;;;;;8.23;1.80;;;14.50;99.90;;;;;;5016273;28;20278;-79
2021/09/24 00:39:36;;;;;;;3.67;1.50;;;14.60;99.90;;;;;;5015172;28;20259;-78
2021/09/24 00:42:02;;;;;;;6.73;1.83;;;14.60;99.90;;;;;;5016322;28;20178;-79
2021/09/24 00:44:38;;;;;;;7.33;1.93;;;14.40;99.90;;;;;;5015862;28;20516;-79
2021/09/24 00:47:04;;;;;;;6.35;1.40;;;14.50;99.90;;;;;;4999752;28;20236;-79
2021/09/24 00:49:30;;;;;;;13.38;2.40;;;14.40;99.90;;;;;;4998715;28;20228;-79
2021/09/24 00:51:55;;;;;;;4.13;1.60;;;14.40;99.90;;;;;;5016602;28;20170;-79
2021/09/24 00:54:21;;;;;;;10.53;2.07;;;14.30;99.90;;;;;;5015694;28;20185;-79
2021/09/24 00:56:47;;;;;;;5.60;1.70;;;14.20;99.90;;;;;;5015910;28;20241;-77
2021/09/24 00:59:12;;;;;;;9.03;1.90;;;14.20;99.90;;;;;;5015389;28;20177;-78
2021/09/24 01:01:38;;;;;;;10.90;2.37;;;14.30;99.90;;;;;;5016648;28;20292;-78
2021/09/24 01:04:04;;;;;;;15.93;2.30;;;14.40;99.90;;;;;;5014329;28;20269;-79
2021/09/24 01:06:30;;;;;;;5.23;2.10;;;14.40;99.90;;;;;;5015917;28;20211;-77
2021/09/24 01:08:56;;;;;;;11.07;1.70;;;14.30;99.90;;;;;;5016169;28;20174;-79
2021/09/24 01:11:21;;;;;;;12.55;1.40;;;14.20;99.90;;;;;;5015934;28;20257;-78
2021/09/24 01:13:47;;;;;;;10.10;3.47;;;14.30;99.90;;;;;;5014472;28;20204;-79
2021/09/24 01:16:13;;;;;;;5.83;1.43;;;14.30;99.90;;;;;;5016088;28;20290;-79
2021/09/24 01:18:38;;;;;;;4.97;1.50;;;14.30;99.90;;;;;;5014384;28;20202;-78
2021/09/24 01:21:09;;;;;;;6.70;1.50;;;14.30;99.90;;;;;;5015488;28;20170;-78
2021/09/24 01:23:35;;;;;;;5.32;1.80;;;14.30;99.90;;;;;;5013612;28;20269;-77
2021/09/24 01:26:01;;;;;;;2.50;1.20;;;14.30;99.90;;;;;;5015412;28;20229;-77
2021/09/24 01:28:29;;;;;;;8.07;1.90;;;14.20;99.90;;;;;;5013922;28;20193;-79
2021/09/24 01:30:55;;;;;;;7.07;1.70;;;14.30;99.90;;;;;;5014684;28;20182;-80
2021/09/24 01:33:20;;;;;;;7.50;1.60;;;14.40;99.90;;;;;;5016289;28;20171;-80
2021/09/24 01:35:46;;;;;;;22.03;1.90;;;14.40;99.90;;;;;;5015643;28;20198;-80
2021/09/24 01:38:11;;;;;;;10.47;1.80;;;14.40;99.90;;;;;;5014539;28;20398;-79
2021/09/24 01:40:37;;;;;;;10.00;2.10;;;14.40;99.90;;;;;;5015610;28;20259;-79
2021/09/24 01:43:03;;;;;;;5.17;1.50;;;14.40;99.90;;;;;;5016867;28;20162;-80
2021/09/24 01:45:28;;;;;;;9.53;2.57;;;14.40;99.90;;;;;;5016197;28;20192;-80
2021/09/24 01:47:54;;;;;;;9.00;1.37;;;14.50;99.90;;;;;;5015886;28;20254;-80
2021/09/24 01:50:20;;;;;;;6.87;1.80;;;14.50;99.90;;;;;;5014730;28;20174;-80
2021/09/24 01:52:46;;;;;;;7.55;2.28;;;14.40;99.90;;;;;;5016241;28;20195;-80
2021/09/24 01:55:12;;;;;;;3.67;1.47;;;14.30;99.90;;;;;;5015489;28;20206;-80
2021/09/24 01:57:38;;;;;;;5.88;2.00;;;14.40;99.90;;;;;;5015637;28;21026;-80
2021/09/24 02:00:06;;;;;;;2.83;1.73;;;14.40;99.90;;;;;;5015715;28;20178;-80
2021/09/24 02:02:32;;;;;;;3.00;1.20;;;14.40;99.90;;;;;;5014110;28;20418;-79
2021/09/24 02:04:57;;;;;;;5.60;1.90;;;14.50;99.90;;;;;;5013931;28;20200;-80
2021/09/24 02:07:23;;;;;;;9.87;1.80;;;14.50;99.90;;;;;;5015812;28;20191;-81
2021/09/24 02:09:48;;;;;;;2.53;1.20;;;14.40;99.90;;;;;;5015956;28;20191;-79
2021/09/24 02:12:14;;;;;;;4.87;1.10;;;14.50;99.90;;;;;;5014749;28;20669;-80
2021/09/24 02:14:40;;;;;;;8.60;1.00;;;14.40;99.90;;;;;;5015527;28;20175;-81
2021/09/24 02:17:05;;;;;;;8.73;1.73;;;14.40;99.90;;;;;;5013891;28;20233;-80
2021/09/24 02:19:32;;;;;;;7.57;2.17;;;14.40;99.90;;;;;;5015318;28;20491;-80
2021/09/24 02:21:58;;;;;;;6.90;2.08;;;14.30;99.90;;;;;;5013717;28;20183;-80
2021/09/24 02:24:24;;;;;;;7.68;1.90;;;14.30;99.90;;;;;;5015288;28;20177;-80
2021/09/24 02:26:50;;;;;;;9.77;2.13;;;14.30;99.90;;;;;;4997029;28;20781;-79
2021/09/24 02:29:16;;;;;;;6.57;2.17;;;14.30;99.90;;;;;;5015206;28;20205;-80
2021/09/24 02:31:41;;;;;;;6.67;1.63;;;14.30;99.90;;;;;;5016401;28;20184;-79
2021/09/24 02:34:10;;;;;;;10.90;1.83;;;14.30;99.90;;;;;;5016218;28;20302;-80
2021/09/24 02:36:36;;;;;;;16.85;2.03;;;14.30;99.90;;;;;;5015827;28;20232;-80
2021/09/24 02:39:03;;;;;;;5.97;1.73;;;14.50;99.90;;;;;;5015855;28;20189;-80
2021/09/24 02:41:29;;;;;;;9.90;2.35;;;14.40;99.90;;;;;;5015898;28;20167;-81
2021/09/24 02:43:54;;;;;;;5.20;1.13;;;14.40;99.90;;;;;;5016267;28;20178;-80
2021/09/24 02:46:20;;;;;;;10.07;1.80;;;14.50;99.90;;;;;;5014789;28;20206;-81
2021/09/24 02:48:46;;;;;;;8.20;1.87;;;14.40;99.90;;;;;;5014319;28;20190;-80
2021/09/24 02:51:11;;;;;;;8.67;1.83;;;14.30;99.90;;;;;;5014362;28;20329;-80
2021/09/24 02:53:37;;;;;;;3.83;1.10;;;14.40;99.90;;;;;;5016311;28;20186;-81
2021/09/24 02:56:03;;;;;;;7.40;1.30;;;14.30;99.90;;;;;;5015089;28;20217;-80
2021/09/24 02:58:28;;;;;;;6.37;1.43;;;14.30;99.90;;;;;;5016036;28;20205;-80
2021/09/24 03:00:54;;;;;;;6.10;1.50;;;14.30;99.90;;;;;;5015891;28;20213;-80
2021/09/24 03:03:22;;;;;;;4.57;2.20;;;14.30;99.90;;;;;;5015401;28;20238;-80
2021/09/24 03:05:48;;;;;;;8.32;1.40;;;14.40;99.90;;;;;;5015153;28;20213;-80
2021/09/24 03:08:13;;;;;;;7.83;1.53;;;14.30;99.90;;;;;;5016944;28;20182;-80
2021/09/24 03:10:39;;;;;;;3.23;1.60;;;14.40;99.90;;;;;;5016009;28;20170;-80
2021/09/24 03:13:05;;;;;;;9.80;1.63;;;14.40;99.90;;;;;;5016200;28;20226;-80
2021/09/24 03:15:30;;;;;;;10.60;3.03;;;14.30;99.90;;;;;;5015345;28;20221;-80
2021/09/24 03:17:56;;;;;;;4.53;1.50;;;14.40;99.90;;;;;;5015985;28;20240;-80
2021/09/24 03:20:22;;;;;;;6.03;1.70;;;14.30;99.90;;;;;;5014936;28;20181;-81
2021/09/24 03:22:47;;;;;;;9.40;1.63;;;14.20;99.90;;;;;;5015702;28;20534;-80
2021/09/24 03:25:13;;;;;;;8.10;1.90;;;14.30;99.90;;;;;;5013721;28;20444;-81
2021/09/24 03:27:39;;;;;;;3.67;1.50;;;14.40;99.90;;;;;;4998794;28;20724;-79
2021/09/24 03:30:06;;;;;;;7.73;1.33;;;14.40;99.90;;;;;;5027000;28;20178;-78
2021/09/24 03:32:33;;;;;;;9.32;2.70;;;14.40;99.90;;;;;;5018866;28;20413;-78
2021/09/24 03:35:00;;;;;;;2.30;1.75;;;14.30;99.90;;;;;;5013515;28;20174;-79
2021/09/24 03:37:26;;;;;;;12.73;2.30;;;14.30;99.90;;;;;;5014051;28;20193;-78
2021/09/24 03:39:51;;;;;;;5.60;1.67;;;14.40;99.90;;;;;;5013555;28;20179;-79
2021/09/24 03:42:17;;;;;;;5.10;1.17;;;14.40;99.90;;;;;;5014381;28;20178;-80
2021/09/24 03:44:45;;;;;;;5.85;1.30;;;14.20;99.90;;;;;;5014364;28;20174;-80
2021/09/24 03:47:11;;;;;;;6.70;2.53;;;14.30;99.90;;;;;;5014389;28;20596;-80
2021/09/24 03:49:37;;;;;;;13.13;1.90;;;14.40;99.90;;;;;;5013006;28;20182;-79
2021/09/24 03:52:03;;;;;;;4.73;1.57;;;14.30;99.90;;;;;;5012686;28;20178;-79
2021/09/24 03:54:30;;;;;;;6.18;1.55;;;14.40;99.90;;;;;;5014326;28;20178;-80
2021/09/24 03:56:55;;;;;;;4.72;1.50;;;14.40;99.90;;;;;;5017792;28;20562;-80
2021/09/24 03:59:21;;;;;;;2.40;0.80;;;14.30;99.90;;;;;;5020020;28;20168;-79
2021/09/24 04:01:46;;;;;;;6.40;1.20;;;14.20;99.90;;;;;;5019665;28;20179;-80
2021/09/24 04:04:12;;;;;;;11.80;1.83;;;14.30;99.90;;;;;;5019354;28;20235;-80
2021/09/24 04:06:37;;;;;;;3.97;1.40;;;14.20;99.90;;;;;;5018530;28;20241;-80
2021/09/24 04:09:03;;;;;;;6.73;1.40;;;14.20;99.90;;;;;;5018564;28;20262;-80
2021/09/24 04:11:28;;;;;;;7.27;1.70;;;14.20;99.90;;;;;;5018821;28;20175;-79
2021/09/24 04:13:57;;;;;;;9.63;2.07;;;14.20;99.90;;;;;;5018041;28;20178;-80
2021/09/24 04:16:26;;;;;;;6.93;1.40;;;14.20;99.90;;;;;;5017593;28;20271;-80
2021/09/24 04:18:51;;;;;;;8.68;1.88;;;14.10;99.90;;;;;;5018488;28;20171;-80
2021/09/24 04:21:17;;;;;;;9.07;1.53;;;14.20;99.90;;;;;;5018028;28;20538;-79
2021/09/24 04:23:42;;;;;;;7.97;2.07;;;14.10;99.90;;;;;;5017603;28;20171;-80
2021/09/24 04:26:08;;;;;;;5.23;1.50;;;14.10;99.90;;;;;;5017987;28;20198;-80
2021/09/24 04:28:37;;;;;;;9.30;2.30;;;14.00;99.90;;;;;;5018144;28;20259;-80
2021/09/24 04:31:02;;;;;;;3.40;1.48;;;14.00;99.90;;;;;;5017145;28;20189;-80
2021/09/24 04:33:28;;;;;;;5.80;2.00;;;14.00;99.90;;;;;;5018620;28;20166;-80
2021/09/24 04:35:53;;;;;;;11.80;2.10;;;14.10;99.90;;;;;;5017963;28;20248;-79
2021/09/24 04:38:19;;;;;;;7.53;1.80;;;14.10;99.90;;;;;;5016087;28;20186;-79
2021/09/24 04:40:44;;;;;;;5.90;1.90;;;14.10;99.90;;;;;;5016807;28;20566;-78
2021/09/24 04:43:10;;;;;;;2.80;1.00;;;14.10;99.90;;;;;;5016401;28;20182;-81
2021/09/24 04:45:36;;;;;;;8.03;1.90;;;14.10;99.90;;;;;;5022927;28;20214;-80
2021/09/24 04:48:01;;;;;;;11.63;1.53;;;14.00;99.90;;;;;;5011039;28;20186;-80
2021/09/24 04:50:27;;;;;;;3.97;1.50;;;14.10;99.90;;;;;;5035654;28;20190;-82
2021/09/24 04:52:54;;;;;;;4.20;1.60;;;14.10;99.90;;;;;;5039095;28;20186;-80
2021/09/24 04:55:19;;;;;;;8.63;1.38;;;14.20;99.90;;;;;;5019641;28;20198;-81
2021/09/24 04:57:47;;;;;;;5.97;1.33;;;14.00;99.90;;;;;;5019871;28;20240;-81
2021/09/24 05:00:20;;;;;;;5.32;1.92;;;14.00;99.90;;;;;;5019791;28;20257;-82
2021/09/24 05:02:46;;;;;;;9.02;2.10;;;14.10;99.90;;;;;;5030955;28;20184;-82
2021/09/24 05:05:12;;;;;;;7.10;1.80;;;14.00;99.90;;;;;;5022587;28;20209;-81
2021/09/24 05:07:38;;;;;;;9.02;2.35;;;14.00;99.90;;;;;;5037697;28;20197;-81
2021/09/24 05:10:07;;;;;;;4.60;1.67;;;14.00;99.90;;;;;;5039564;28;20243;-81
2021/09/24 05:12:33;;;;;;;8.23;1.98;;;14.00;99.90;;;;;;5038924;28;20181;-81
2021/09/24 05:14:59;;;;;;;8.07;2.20;;;14.00;99.90;;;;;;5039103;28;20170;-81
2021/09/24 05:17:24;;;;;;;2.80;1.57;;;14.00;99.90;;;;;;5036191;28;20788;-81
2021/09/24 05:19:51;;;;;;;3.23;1.63;;;14.10;99.90;;;;;;5032156;28;20171;-82
2021/09/24 05:22:16;;;;;;;3.97;1.85;;;14.10;99.90;;;;;;5019566;28;20709;-81
2021/09/24 05:24:42;;;;;;;6.20;1.50;;;14.10;99.90;;;;;;5020085;28;20181;-82
2021/09/24 05:27:07;;;;;;;7.80;1.60;;;14.10;99.90;;;;;;5018885;28;20178;-80
2021/09/24 05:29:33;;;;;;;6.03;1.40;;;14.20;99.90;;;;;;5020243;28;20183;-80
2021/09/24 05:31:58;;;;;;;4.07;1.00;;;14.20;99.90;;;;;;5018856;28;20265;-80
2021/09/24 05:34:24;;;;;;;7.03;1.30;;;14.20;99.90;;;;;;5002409;28;20205;-81
2021/09/24 05:36:50;;;;;;;1.93;1.53;;;14.20;99.90;;;;;;5017796;28;20268;-81
2021/09/24 05:39:16;;;;;;;7.83;1.53;;;14.30;99.90;;;;;;5018231;28;20309;-81
2021/09/24 05:41:41;;;;;;;9.20;1.30;;;14.30;99.90;;;;;;5018475;28;20198;-81
2021/09/24 05:44:07;;;;;;;10.97;2.50;;;14.30;99.90;;;;;;5018511;28;20844;-80
2021/09/24 05:46:33;;;;;;;10.43;1.80;;;14.30;99.90;;;;;;5019367;28;20265;-81
2021/09/24 05:48:58;;;;;;;6.17;1.40;;;14.40;99.90;;;;;;5019627;28;20613;-80
2021/09/24 05:51:24;;;;;;;5.53;2.10;;;14.20;99.90;;;;;;5000689;28;20186;-81
2021/09/24 05:53:50;;;;;;;6.93;1.40;;;14.20;99.90;;;;;;5015542;28;20178;-80
2021/09/24 05:56:16;;;;;;;4.40;2.05;;;14.20;99.90;;;;;;5016002;28;20600;-80
2021/09/24 05:58:41;;;;;;;5.77;1.83;;;14.20;99.90;;;;;;5017805;28;20169;-81
2021/09/24 06:01:10;;;;;;;3.00;1.60;;;14.00;99.90;;;;;;5033467;28;20652;-83
2021/09/24 06:03:36;;;;;;;4.68;1.75;;;14.10;99.90;;;;;;5028248;28;20193;-82
2021/09/24 06:06:01;;;;;;;7.07;2.60;;;14.10;99.90;;;;;;5020158;28;20205;-81
2021/09/24 06:08:27;;;;;;;7.23;1.80;;;14.10;99.90;;;;;;5019585;28;20526;-81
2021/09/24 06:10:53;;;;;;;8.25;2.40;;;14.10;99.90;;;;;;5036323;28;20166;-80
2021/09/24 06:13:19;;;;;;;7.45;2.00;;;14.20;99.90;;;;;;5036161;28;20239;-81
2021/09/24 06:15:47;;;;;;;4.50;1.33;;;14.10;99.90;;;;;;5036477;28;20673;-80
2021/09/24 06:18:12;;;;;;;5.45;1.42;;;14.20;99.90;;;;;;5036084;28;20182;-81
2021/09/24 06:20:38;;;;;;;11.67;1.97;;;14.30;99.90;;;;;;5036111;28;20707;-81
2021/09/24 06:23:03;;;;;;;4.03;1.57;;;14.40;99.90;;;;;;5035691;28;20173;-81
2021/09/24 06:25:29;;;;;;;2.90;1.60;;;14.50;99.90;;;;;;5030932;28;20194;-80
2021/09/24 06:27:55;;;;;;;7.63;2.60;;;14.50;99.90;;;;;;5028787;28;20181;-80
2021/09/24 06:30:22;;;;;;;7.43;2.07;;;14.40;99.90;;;;;;5035899;28;20228;-80
2021/09/24 06:32:48;;;;;;;10.00;2.85;;;14.40;99.90;;;;;;5035858;28;20185;-81
2021/09/24 06:35:14;;;;;;;8.65;1.70;;;14.50;99.90;;;;;;5034409;28;20211;-79
2021/09/24 06:37:41;;;;;;;5.50;2.53;;;14.50;99.90;;;;;;5035628;28;20208;-78
2021/09/24 06:40:08;;;;;;;7.20;2.45;;;14.40;99.90;;;;;;5035300;28;20182;-79
2021/09/24 06:42:36;;;;;;;14.02;6.97;;;14.40;99.90;;;;;;5035255;28;20195;-83
2021/09/24 06:45:09;;;;;;;8.05;2.90;;;14.80;99.90;;;;;;5035377;28;20200;-80
2021/09/24 06:47:34;;;;;;;15.73;4.80;;;15.40;99.90;;;;;;5037432;28;20204;-80
2021/09/24 06:50:00;;;;;;;10.57;2.80;;;15.70;99.90;;;;;;5036770;28;20485;-80
2021/09/24 06:52:26;;;;;;;8.13;2.40;;;16.10;99.90;;;;;;5036213;28;20184;-80
2021/09/24 06:54:52;;;;;;;6.90;1.40;;;16.70;99.90;;;;;;5014967;28;20188;-79
2021/09/24 06:57:17;;;;;;;5.77;2.20;;;16.40;99.90;;;;;;5029238;28;22063;-78
2021/09/24 06:59:43;;;;;;;6.93;1.77;;;15.80;99.90;;;;;;5033699;28;20226;-77
2021/09/24 07:02:09;;;;;;;3.93;1.43;;;15.30;99.90;;;;;;5034062;28;20199;-79
2021/09/24 07:04:34;;;;;;;5.17;1.87;;;15.40;99.90;;;;;;5035053;28;20183;-78
2021/09/24 07:07:00;;;;;;;7.97;2.47;;;15.50;99.90;;;;;;5035046;28;20547;-79
2021/09/24 07:09:25;;;;;;;4.13;1.60;;;15.60;99.90;;;;;;5033503;28;20666;-79
2021/09/24 07:11:51;;;;;;;11.83;1.80;;;15.70;99.90;;;;;;5033616;28;20573;-79
2021/09/24 07:14:18;;;;;;;8.67;1.80;;;15.80;99.90;;;;;;5032947;28;20180;-80
2021/09/24 07:16:44;;;;;;;2.70;1.40;;;15.70;99.90;;;;;;5034096;28;20482;-79
2021/09/24 07:19:10;;;;;;;13.53;2.40;;;15.20;99.90;;;;;;5025993;28;20430;-80
2021/09/24 07:21:36;;;;;;;10.50;1.93;;;15.20;99.90;;;;;;5050001;28;20430;-79
2021/09/24 07:24:02;;;;;;;10.90;1.80;;;15.30;99.90;;;;;;5034298;28;20171;-79
2021/09/24 07:26:28;;;;;;;8.07;2.13;;;15.30;99.90;;;;;;5033490;28;20229;-79
2021/09/24 07:28:55;;;;;;;8.73;1.90;;;15.30;99.90;;;;;;5034488;28;20431;-79
2021/09/24 07:31:21;;;;;;;10.37;1.90;;;15.10;99.90;;;;;;5035210;28;20450;-79
2021/09/24 07:33:48;;;;;;;5.67;1.83;;;15.20;99.90;;;;;;5034438;28;20526;-79
2021/09/24 07:36:16;;;;;;;8.00;2.23;;;15.20;99.90;;;;;;5035274;28;20493;-79
2021/09/24 07:38:42;;;;;;;10.13;2.43;;;15.30;99.90;;;;;;5035286;28;20526;-79
2021/09/24 07:41:08;;;;;;;7.97;2.93;;;15.10;99.90;;;;;;5035663;28;20426;-79
2021/09/24 07:43:33;;;;;;;4.97;1.67;;;15.10;99.90;;;;;;5035399;28;20428;-80
2021/09/24 07:45:59;;;;;;;9.13;1.40;;;15.20;99.90;;;;;;5031579;28;20301;-80
2021/09/24 07:48:24;;;;;;;9.47;2.80;;;15.00;99.90;;;;;;5028889;28;20270;-81
2021/09/24 07:50:50;;;;;;;12.67;1.80;;;15.00;99.90;;;;;;5035176;28;20186;-83
2021/09/24 07:53:15;;;;;;;4.93;1.60;;;15.10;99.90;;;;;;5022851;28;20184;-80
2021/09/24 07:55:41;;;;;;;4.47;1.80;;;15.30;99.90;;;;;;5033469;28;20199;-81
2021/09/24 07:58:08;;;;;;;5.23;2.20;;;15.30;99.90;;;;;;5035700;28;20210;-79
2021/09/24 08:00:35;;;;;;;3.47;2.13;;;15.30;99.90;;;;;;5031421;28;20207;-80
2021/09/24 08:03:02;;;;;;;7.07;2.47;;;15.40;99.90;;;;;;5015011;28;20416;-80
2021/09/24 08:05:28;;;;;;;4.43;1.80;;;15.50;99.90;;;;;;5021449;28;20451;-80
2021/09/24 08:07:54;;;;;;;5.93;1.53;;;15.70;99.90;;;;;;5030722;28;20436;-80
2021/09/24 08:10:19;;;;;;;11.70;2.43;;;15.70;99.90;;;;;;5017609;28;20256;-80
2021/09/24 08:12:45;;;;;;;7.90;2.03;;;15.90;99.90;;;;;;5034673;28;20588;-80
2021/09/24 08:15:11;;;;;;;5.97;1.60;;;15.80;99.90;;;;;;5033236;28;20295;-80
2021/09/24 08:17:37;;;;;;;6.70;2.07;;;15.70;99.90;;;;;;5033926;28;20993;-80
2021/09/24 08:20:04;;;;;;;13.03;1.97;;;15.80;99.90;;;;;;5034940;28;20173;-79
2021/09/24 08:22:32;;;;;;;9.07;2.70;;;15.90;99.90;;;;;;5035304;28;20450;-80
2021/09/24 08:24:58;;;;;;;9.17;1.70;;;15.90;99.90;;;;;;5035608;28;20420;-80
2021/09/24 08:27:23;;;;;;;5.67;2.13;;;15.80;99.90;;;;;;5033563;28;20445;-81
2021/09/24 08:29:49;;;;;;;4.87;2.00;;;16.00;99.90;;;;;;5034436;28;20548;-79
2021/09/24 08:32:14;;;;;;;8.10;1.70;;;16.10;99.90;;;;;;5033229;28;20184;-79
2021/09/24 08:34:40;;;;;;;6.77;1.63;;;16.10;99.90;;;;;;5017441;28;20192;-80
2021/09/24 08:37:05;;;;;;;4.13;1.53;;;15.90;99.90;;;;;;5035354;28;20201;-80
2021/09/24 08:39:31;;;;;;;6.93;1.50;;;16.10;99.90;;;;;;5035626;28;20233;-80
2021/09/24 08:41:56;;;;;;;6.03;1.40;;;16.10;99.90;;;;;;5035206;28;20170;-80
2021/09/24 08:44:24;;;;;;;8.80;2.03;;;16.10;99.90;;;;;;5019359;28;20607;-80
2021/09/24 08:46:50;;;;;;;10.47;2.13;;;16.30;99.90;;;;;;5038577;28;20197;-80
2021/09/24 08:49:20;;;;;;;6.43;1.90;;;16.30;99.90;;;;;;5038984;28;20420;-80
2021/09/24 08:51:46;;;;;;;7.60;2.53;;;16.40;99.90;;;;;;5038846;28;20447;-80
2021/09/24 08:54:12;;;;;;;4.67;1.93;;;16.50;99.90;;;;;;5035962;28;20412;-80
2021/09/24 08:56:38;;;;;;;9.77;2.20;;;16.40;99.90;;;;;;5036523;28;20455;-80
2021/09/24 08:59:04;;;;;;;4.57;2.37;;;16.50;99.90;;;;;;5037527;28;20439;-80
2021/09/24 09:02:00;;;;;;;7.27;2.33;;;16.40;99.90;;;;;;5038102;28;20170;-80
2021/09/24 09:04:38;;;;;;;8.73;1.43;;;16.50;99.90;;;;;;5036616;28;20920;-80
2021/09/24 09:07:06;;;;;;;4.87;2.07;;;16.30;99.90;;;;;;5035988;28;20878;-80
2021/09/24 09:09:38;;;;;;;12.03;2.40;;;16.30;99.90;;;;;;5037764;28;20412;-80
2021/09/24 09:12:23;;;;;;;6.20;1.60;;;16.50;99.90;;;;;;5036516;28;20470;-80
2021/09/24 09:15:00;;;;;;;4.87;1.53;;;16.60;99.90;;;;;;5019597;28;20512;-80
2021/09/24 09:17:32;;;;;;;11.60;3.23;;;16.60;99.90;;;;;;5038075;28;20444;-80
2021/09/24 09:20:22;;;;;;;3.63;1.63;;;16.50;99.90;;;;;;5038537;28;20432;-80
2021/09/24 09:22:51;;;;;;;11.80;2.07;;;16.50;99.90;;;;;;5036480;28;20419;-79
2021/09/24 09:25:27;;;;;;;10.10;2.30;;;16.70;99.90;;;;;;5037390;28;20547;-80
2021/09/24 09:27:55;;;;;;;8.10;2.20;;;16.90;99.90;;;;;;5037274;28;20488;-80
2021/09/24 09:30:23;;;;;;;4.97;1.50;;;16.90;99.90;;;;;;5036741;28;20961;-80
2021/09/24 09:33:01;;;;;;;12.57;2.87;;;16.90;99.90;;;;;;5035699;28;20785;-79
2021/09/24 09:35:27;;;;;;;5.20;1.57;;;17.00;99.90;;;;;;5040858;28;20429;-80
2021/09/24 09:37:54;;;;;;;3.63;1.53;;;16.90;99.90;;;;;;5042137;28;20456;-80
2021/09/24 09:40:23;;;;;;;5.73;1.50;;;17.00;99.90;;;;;;5055857;28;20439;-80
2021/09/24 09:42:54;;;;;;;6.40;1.67;;;17.00;99.90;;;;;;5037781;28;20415;-80
2021/09/24 09:45:20;;;;;;;4.77;1.40;;;17.10;99.90;;;;;;5038495;28;20431;-80
2021/09/24 09:47:48;;;;;;;12.73;2.90;;;17.00;99.90;;;;;;5038293;28;20410;-80
2021/09/24 09:50:22;;;;;;;5.63;1.80;;;17.00;99.90;;;;;;5038101;28;20169;-80
2021/09/24 09:52:59;;;;;;;4.37;1.23;;;16.90;99.90;;;;;;5036792;28;20908;-80
2021/09/24 09:55:26;;;;;;;8.47;2.60;;;17.00;99.90;;;;;;5035207;28;20424;-79
2021/09/24 09:58:00;;;;;;;5.80;1.77;;;17.10;99.90;;;;;;5036948;28;20460;-80
2021/09/24 10:00:31;;;;;;;6.77;2.30;;;17.10;99.90;;;;;;5038035;28;20414;-80
2021/09/24 10:03:10;;;;;;;5.33;2.23;;;17.20;99.90;;;;;;5035391;28;20406;-79
2021/09/24 10:05:43;;;;;;;6.23;2.30;;;17.40;99.90;;;;;;5035660;28;20459;-80
2021/09/24 10:08:26;;;;;;;2.77;1.37;;;17.50;99.90;;;;;;5019852;28;20426;-80
2021/09/24 10:10:55;;;;;;;6.13;1.60;;;17.40;99.90;;;;;;5037742;28;20421;-80
2021/09/24 10:13:21;;;;;;;5.23;1.90;;;17.30;99.90;;;;;;5036950;28;20411;-80
2021/09/24 10:15:48;;;;;;;3.73;1.90;;;17.30;99.90;;;;;;5037149;28;20448;-80
2021/09/24 10:18:14;;;;;;;2.90;1.83;;;17.40;99.90;;;;;;5036755;28;20449;-80
2021/09/24 10:20:40;;;;;;;3.00;1.63;;;17.40;99.90;;;;;;5035629;28;20456;-80
2021/09/24 10:23:07;;;;;;;6.97;1.83;;;17.40;99.90;;;;;;5035489;28;20175;-80
2021/09/24 10:25:35;;;;;;;6.40;2.20;;;17.30;99.90;;;;;;5035728;28;20439;-80
2021/09/24 10:28:06;;;;;;;4.87;1.67;;;17.30;99.90;;;;;;5036805;28;20452;-80
2021/09/24 10:30:33;;;;;;;4.60;1.40;;;17.10;99.90;;;;;;5035647;28;20425;-80
2021/09/24 10:33:16;;;;;;;6.93;2.20;;;17.20;99.90;;;;;;5034530;28;20549;-80
2021/09/24 10:35:51;;;;;;;8.20;1.87;;;17.20;99.90;;;;;;5035612;28;20446;-79
2021/09/24 10:38:21;;;;;;;4.47;1.60;;;17.10;99.90;;;;;;5036060;28;20572;-80
2021/09/24 10:40:56;;;;;;;3.57;1.93;;;17.30;99.90;;;;;;5035811;28;20412;-80
2021/09/24 10:43:22;;;;;;;3.00;1.57;;;17.30;99.90;;;;;;5018092;28;20419;-79
2021/09/24 10:45:48;;;;;;;9.83;1.80;;;17.30;99.90;;;;;;5035009;28;20520;-80
2021/09/24 10:48:20;;;;;;;4.33;1.63;;;17.40;99.90;;;;;;5036343;28;20474;-80
2021/09/24 10:51:06;;;;;;;2.93;1.50;;;17.50;99.90;;;;;;5036877;28;20561;-80
2021/09/24 10:53:40;;;;;;;4.70;1.90;;;17.50;99.90;;;;;;5037173;28;20411;-81
2021/09/24 10:56:06;;;;;;;2.07;1.27;;;17.40;99.90;;;;;;5035995;28;20443;-80
2021/09/24 10:58:31;;;;;;;4.10;1.83;;;17.40;99.90;;;;;;5035854;28;20503;-80
2021/09/24 11:01:06;;;;;;;6.53;1.57;;;17.40;99.90;;;;;;5037467;28;20224;-81
2021/09/24 11:03:33;;;;;;;6.60;2.03;;;17.30;99.90;;;;;;5035895;28;20416;-81
2021/09/24 11:06:10;;;;;;;8.50;1.93;;;17.20;99.90;;;;;;5037303;28;20443;-81
2021/09/24 11:08:38;;;;;;;4.13;1.60;;;17.30;99.90;;;;;;5036128;28;20420;-81
2021/09/24 11:11:23;;;;;;;3.80;1.63;;;17.30;99.90;;;;;;5037744;28;20406;-81
2021/09/24 11:13:54;;;;;;;2.10;1.57;;;17.50;99.90;;;;;;5036596;28;20422;-81
2021/09/24 11:16:25;;;;;;;3.00;1.60;;;17.50;99.90;;;;;;5034860;28;20460;-81
2021/09/24 11:19:00;;;;;;;9.57;2.40;;;17.40;99.90;;;;;;5035783;28;20435;-80
2021/09/24 11:22:03;;;;;;;2.77;1.53;;;17.40;99.90;;;;;;5036798;28;20418;-81
2021/09/24 11:24:30;;;;;;;4.30;2.20;;;17.30;99.90;;;;;;5036280;28;20461;-80
2021/09/24 11:26:59;;;;;;;4.67;2.00;;;17.30;99.90;;;;;;5036386;28;20438;-81
2021/09/24 11:29:28;;;;;;;4.93;2.00;;;17.10;99.90;;;;;;5018974;28;20422;-80
2021/09/24 11:31:53;;;;;;;9.70;2.20;;;17.10;99.90;;;;;;5036559;28;20440;-80
2021/09/24 11:34:42;;;;;;;2.67;1.60;;;17.00;99.90;;;;;;5034627;28;20418;-81
2021/09/24 11:37:09;;;;;;;3.00;1.67;;;17.00;99.90;;;;;;5034980;28;20236;-81
2021/09/24 11:39:36;;;;;;;2.07;1.40;;;17.10;99.90;;;;;;5018506;28;20926;-82
2021/09/24 11:42:07;;;;;;;4.97;1.73;;;17.10;99.90;;;;;;5037202;28;20417;-81
2021/09/24 11:44:35;;;;;;;5.33;1.97;;;17.10;99.90;;;;;;5035718;28;20784;-80
2021/09/24 11:47:00;;;;;;;4.60;1.50;;;17.10;99.90;;;;;;5035501;28;20511;-81
2021/09/24 11:49:26;;;;;;;5.50;1.63;;;17.00;99.90;;;;;;5035242;28;20426;-81
2021/09/24 11:51:59;;;;;;;2.10;1.63;;;17.00;99.90;;;;;;5036937;28;20177;-81
2021/09/24 11:54:28;;;;;;;3.43;1.93;;;16.80;99.90;;;;;;5036488;28;20181;-81
2021/09/24 11:56:53;;;;;;;13.20;2.00;;;16.90;99.90;;;;;;5034976;28;20459;-81
2021/09/24 11:59:22;;;;;;;2.80;1.13;;;16.80;99.90;;;;;;5035138;28;20939;-81
2021/09/24 12:01:48;;;;;;;4.60;1.67;;;16.90;99.90;;;;;;5035034;28;20541;-80
2021/09/24 12:04:13;;;;;;;5.70;1.47;;;16.90;99.90;;;;;;5035497;28;20423;-80
2021/09/24 12:06:43;;;;;;;1.57;1.17;;;17.00;99.90;;;;;;5018324;28;20213;-81
2021/09/24 12:09:11;;;;;;;2.47;1.13;;;17.00;99.90;;;;;;5019410;28;20189;-83
2021/09/24 12:11:53;;;;;;;1.67;1.33;;;16.90;99.90;;;;;;5034755;28;20412;-81
2021/09/24 12:14:21;;;;;;;3.03;1.30;;;16.90;99.90;;;;;;5036099;28;20941;-81
2021/09/24 12:16:49;;;;;;;2.20;1.30;;;16.90;99.90;;;;;;5038111;28;20459;-82
2021/09/24 12:19:17;;;;;;;1.73;1.27;;;17.00;99.90;;;;;;5037790;28;20412;-80
2021/09/24 12:21:49;;;;;;;1.90;1.07;;;17.10;99.90;;;;;;5039050;28;20413;-81
2021/09/24 12:24:16;;;;;;;1.70;1.33;;;17.20;99.90;;;;;;5040111;28;20778;-80
2021/09/24 12:26:48;;;;;;;2.00;1.27;;;17.30;99.90;;;;;;5040821;28;20444;-81
2021/09/24 12:29:17;;;;;;;1.03;0.83;;;17.20;99.90;;;;;;5039300;28;20403;-81
2021/09/24 12:31:52;;;;;;;2.60;1.00;;;17.30;99.90;;;;;;5038572;28;20942;-81
2021/09/24 12:34:23;;;;;;;2.20;1.57;;;17.40;99.90;;;;;;5039079;28;20426;-81
2021/09/24 12:36:50;;;;;;;4.40;2.17;;;17.40;99.90;;;;;;5039475;28;20596;-81
2021/09/24 12:39:20;;;;;;;2.93;1.33;;;17.30;99.90;;;;;;5039822;28;20423;-82
2021/09/24 12:41:46;;;;;;;3.93;1.30;;;17.20;99.90;;;;;;5038848;28;20442;-82
2021/09/24 12:44:12;;;;;;;1.67;1.10;;;17.20;99.90;;;;;;5039927;28;20901;-82
2021/09/24 12:46:49;;;;;;;1.70;1.47;;;17.10;99.90;;;;;;5038597;28;20198;-82